Milano / Bresso Airport LIMB

Flugplatz Daten

Name: Milano / Bresso Airport

Ident: LIMB

Lat: 45,54219818

Long: 9,20333004

Platzhöhe: 484 ft

IataCode:

City: Milano

Homepage: http://www.aeroclubmilano.it

Metar

2022/08/12 21:30
WADD 122130Z 35005KT 9999 TS FEW016CB BKN016 25/25 Q1010 TEMPO TL2230 TS RMK CB CLIMB-OUT

Taf

Gewünschte Webcam nicht vorhanden? Dann fügen Sie eine hinzu. Sie wird dann so schnell wie möglich freigeschaltet
Url: Title: